createdAt,value
2018-09-27T00:00:56.074Z,43.58
2018-09-27T00:02:05.495Z,43.67
2018-09-27T00:03:15.172Z,43.67
2018-09-27T00:04:24.589Z,43.67
2018-09-27T00:05:33.516Z,43.67
2018-09-27T00:06:42.942Z,43.77
2018-09-27T00:07:52.894Z,43.77
2018-09-27T00:09:02.600Z,43.58
2018-09-27T00:10:12.272Z,43.67
2018-09-27T00:11:21.971Z,43.58
2018-09-27T00:12:31.145Z,43.77
2018-09-27T00:13:40.325Z,43.67
2018-09-27T00:14:50.010Z,43.67
2018-09-27T00:15:59.965Z,43.58
2018-09-27T00:17:09.398Z,43.67
2018-09-27T00:18:18.827Z,43.58
2018-09-27T00:19:28.253Z,43.67
2018-09-27T00:20:37.808Z,43.67
2018-09-27T00:21:47.497Z,43.67
2018-09-27T00:22:56.412Z,43.67
2018-09-27T00:24:06.099Z,43.77
2018-09-27T00:25:15.261Z,43.58
2018-09-27T00:26:24.686Z,43.67
2018-09-27T00:27:34.117Z,43.67
2018-09-27T00:28:43.270Z,43.67
2018-09-27T00:29:52.426Z,43.67
2018-09-27T00:31:01.592Z,43.67
2018-09-27T00:32:11.281Z,43.58
2018-09-27T00:33:20.703Z,43.67
2018-09-27T00:34:30.650Z,43.67
2018-09-27T00:35:40.602Z,43.67
2018-09-27T00:36:49.768Z,43.67
2018-09-27T00:37:58.942Z,43.67
2018-09-27T00:39:08.628Z,43.67
2018-09-27T00:40:18.043Z,43.67
2018-09-27T00:41:27.713Z,43.67
2018-09-27T00:42:37.150Z,43.58
2018-09-27T00:43:46.324Z,43.67
2018-09-27T00:44:56.001Z,43.67
2018-09-27T00:46:05.697Z,43.67
2018-09-27T00:47:15.132Z,43.67
2018-09-27T00:48:24.563Z,43.67
2018-09-27T00:49:33.726Z,43.67
2018-09-27T00:50:43.141Z,43.67
2018-09-27T00:51:52.315Z,43.67
2018-09-27T00:53:01.740Z,43.67
2018-09-27T00:54:10.659Z,43.67
2018-09-27T00:55:20.342Z,43.67
2018-09-27T00:56:29.499Z,43.67
2018-09-27T00:57:39.442Z,43.67
2018-09-27T00:58:48.860Z,43.67
2018-09-27T00:59:57.777Z,43.67
2018-09-27T01:01:07.466Z,43.58
2018-09-27T01:02:16.916Z,43.67
2018-09-27T01:03:26.601Z,43.67
2018-09-27T01:04:36.025Z,43.48
2018-09-27T01:05:45.452Z,43.67
2018-09-27T01:06:54.726Z,43.67
2018-09-27T01:08:04.152Z,43.58
2018-09-27T01:09:13.577Z,43.67
2018-09-27T01:10:22.986Z,43.67
2018-09-27T01:11:32.422Z,43.58
2018-09-27T01:12:41.840Z,43.67
2018-09-27T01:13:51.266Z,43.67
2018-09-27T01:15:00.877Z,43.58
2018-09-27T01:16:10.586Z,43.67
2018-09-27T01:17:20.090Z,43.67
2018-09-27T01:18:29.261Z,43.58
2018-09-27T01:19:38.432Z,43.58
2018-09-27T01:20:47.599Z,43.58
2018-09-27T01:21:57.015Z,43.58
2018-09-27T01:23:06.705Z,43.58
2018-09-27T01:24:16.398Z,43.67
2018-09-27T01:25:25.819Z,43.67
2018-09-27T01:26:34.991Z,43.58
2018-09-27T01:27:44.476Z,43.67
2018-09-27T01:28:54.426Z,43.58
2018-09-27T01:30:04.114Z,43.48
2018-09-27T01:31:13.272Z,43.67
2018-09-27T01:32:22.704Z,43.58
2018-09-27T01:33:32.127Z,43.67
2018-09-27T01:34:41.801Z,43.67
2018-09-27T01:35:50.961Z,43.58
2018-09-27T01:37:00.379Z,43.67
2018-09-27T01:38:10.064Z,43.67
2018-09-27T01:39:19.491Z,43.58
2018-09-27T01:40:28.664Z,43.67
2018-09-27T01:41:38.371Z,43.58
2018-09-27T01:42:47.807Z,43.58
2018-09-27T01:43:56.957Z,43.67
2018-09-27T01:45:06.388Z,43.67
2018-09-27T01:46:16.318Z,43.67
2018-09-27T01:47:26.003Z,43.48
2018-09-27T01:48:35.529Z,43.67
2018-09-27T01:49:45.209Z,43.58
2018-09-27T01:50:54.377Z,43.48
2018-09-27T01:52:04.111Z,43.58
2018-09-27T01:53:13.799Z,43.58
2018-09-27T01:54:23.229Z,43.58
2018-09-27T01:55:32.900Z,43.58
2018-09-27T01:56:42.327Z,43.58
2018-09-27T01:57:51.551Z,43.48
2018-09-27T01:59:00.995Z,43.58
2018-09-27T02:00:10.158Z,43.58
2018-09-27T02:01:19.311Z,43.48
2018-09-27T02:02:28.995Z,43.58
2018-09-27T02:03:38.165Z,43.67
2018-09-27T02:04:47.340Z,43.58
2018-09-27T02:05:56.766Z,43.58
2018-09-27T02:07:06.455Z,43.48
2018-09-27T02:08:15.612Z,43.58
2018-09-27T02:09:24.807Z,43.48
2018-09-27T02:10:34.733Z,43.48
2018-09-27T02:11:44.157Z,43.48
2018-09-27T02:12:53.325Z,43.58
2018-09-27T02:14:03.020Z,43.58
2018-09-27T02:15:12.706Z,43.58
2018-09-27T02:16:22.396Z,43.48
2018-09-27T02:17:32.097Z,43.48
2018-09-27T02:18:41.008Z,43.48
2018-09-27T02:19:49.924Z,43.48
2018-09-27T02:20:59.112Z,43.48
2018-09-27T02:22:08.577Z,43.48
2018-09-27T02:23:17.740Z,43.48
2018-09-27T02:24:26.667Z,43.58
2018-09-27T02:25:36.083Z,43.48
2018-09-27T02:26:45.255Z,43.48
2018-09-27T02:27:54.687Z,43.58
2018-09-27T02:29:04.107Z,43.48
2018-09-27T02:30:13.813Z,43.58
2018-09-27T02:31:23.250Z,43.58
2018-09-27T02:32:33.208Z,43.48
2018-09-27T02:33:42.655Z,43.58
2018-09-27T02:34:52.576Z,43.58
2018-09-27T02:36:02.269Z,43.67
2018-09-27T02:37:11.486Z,43.58
2018-09-27T02:38:20.915Z,43.58
2018-09-27T02:39:30.608Z,43.67
2018-09-27T02:40:40.294Z,43.48
2018-09-27T02:41:49.972Z,43.58
2018-09-27T02:42:59.138Z,43.58
2018-09-27T02:44:08.297Z,43.48
2018-09-27T02:45:17.993Z,43.48
2018-09-27T02:46:27.677Z,43.48
2018-09-27T02:47:36.856Z,43.58
2018-09-27T02:48:46.283Z,43.48
2018-09-27T02:49:55.964Z,43.58
2018-09-27T02:51:05.133Z,43.48
2018-09-27T02:52:14.845Z,43.48
2018-09-27T02:53:24.030Z,43.58
2018-09-27T02:54:33.985Z,43.48
2018-09-27T02:55:43.422Z,43.58
2018-09-27T02:56:53.124Z,43.48
2018-09-27T02:58:02.553Z,43.67
2018-09-27T02:59:12.489Z,43.48
2018-09-27T03:00:22.168Z,43.58
2018-09-27T03:01:31.602Z,43.48
2018-09-27T03:02:40.779Z,43.58
2018-09-27T03:03:50.457Z,43.48
2018-09-27T03:05:00.138Z,43.48
2018-09-27T03:06:09.844Z,43.48
2018-09-27T03:07:19.533Z,43.48
2018-09-27T03:08:28.985Z,43.58
2018-09-27T03:09:38.675Z,43.48
2018-09-27T03:10:47.838Z,43.58
2018-09-27T03:11:57.029Z,43.48
2018-09-27T03:13:06.495Z,43.67
2018-09-27T03:14:15.687Z,43.48
2018-09-27T03:15:25.111Z,43.58
2018-09-27T03:16:34.280Z,43.48
2018-09-27T03:17:43.711Z,43.58
2018-09-27T03:18:53.404Z,43.58
2018-09-27T03:20:02.571Z,43.67
2018-09-27T03:21:12.254Z,43.48
2018-09-27T03:22:22.266Z,43.48
2018-09-27T03:23:31.161Z,43.48
2018-09-27T03:24:40.328Z,43.67
2018-09-27T03:25:50.022Z,43.58
2018-09-27T03:26:59.708Z,43.48
2018-09-27T03:28:09.631Z,43.48
2018-09-27T03:29:19.323Z,43.48
2018-09-27T03:30:28.752Z,43.58
2018-09-27T03:31:38.729Z,43.48
2018-09-27T03:32:48.708Z,43.48
2018-09-27T03:33:58.390Z,43.58
2018-09-27T03:35:08.336Z,43.58
2018-09-27T03:36:17.515Z,43.48
2018-09-27T03:37:26.691Z,43.58
2018-09-27T03:38:36.390Z,43.48
2018-09-27T03:39:46.500Z,43.48
2018-09-27T03:40:56.376Z,43.48
2018-09-27T03:42:06.069Z,43.48
2018-09-27T03:43:15.499Z,43.58
2018-09-27T03:44:24.928Z,43.48
2018-09-27T03:45:34.607Z,43.48
2018-09-27T03:46:43.769Z,43.58
2018-09-27T03:47:53.458Z,43.58
2018-09-27T03:49:03.131Z,43.58
2018-09-27T03:50:12.570Z,43.48
2018-09-27T03:51:22.024Z,43.58
2018-09-27T03:52:31.968Z,43.67
2018-09-27T03:53:41.927Z,43.58
2018-09-27T03:54:51.365Z,43.48
2018-09-27T03:56:01.033Z,43.48
2018-09-27T03:57:10.225Z,43.58
2018-09-27T03:58:18.891Z,43.48
2018-09-27T03:59:28.884Z,43.58
2018-09-27T04:00:38.833Z,43.58
2018-09-27T04:01:48.501Z,43.48
2018-09-27T04:02:57.942Z,43.48
2018-09-27T04:04:07.388Z,43.58
2018-09-27T04:05:16.819Z,43.48
2018-09-27T04:06:26.007Z,43.67
2018-09-27T04:07:35.707Z,43.67
2018-09-27T04:08:45.126Z,43.48
2018-09-27T04:09:54.606Z,43.48
2018-09-27T04:11:04.097Z,43.58
2018-09-27T04:12:13.783Z,43.58
2018-09-27T04:13:23.207Z,43.58
2018-09-27T04:14:32.376Z,43.48
2018-09-27T04:15:41.304Z,43.67
2018-09-27T04:16:51.191Z,43.48
2018-09-27T04:18:00.872Z,43.58
2018-09-27T04:19:10.051Z,43.48
2018-09-27T04:20:19.996Z,43.48
2018-09-27T04:21:29.421Z,43.58
2018-09-27T04:22:38.585Z,43.58
2018-09-27T04:23:47.774Z,43.58
2018-09-27T04:24:57.924Z,43.58
2018-09-27T04:26:07.604Z,43.58
2018-09-27T04:27:17.278Z,43.48
2018-09-27T04:28:26.708Z,43.58
2018-09-27T04:29:35.615Z,43.58
2018-09-27T04:30:45.566Z,43.48
2018-09-27T04:31:54.725Z,43.48
2018-09-27T04:33:04.146Z,43.67
2018-09-27T04:34:13.577Z,43.48
2018-09-27T04:35:23.952Z,43.48
2018-09-27T04:36:33.114Z,43.67
2018-09-27T04:37:42.282Z,43.67
2018-09-27T04:38:51.978Z,43.58
2018-09-27T04:40:01.677Z,43.67
2018-09-27T04:41:11.095Z,43.48
2018-09-27T04:42:20.535Z,43.48
2018-09-27T04:43:29.706Z,43.58
2018-09-27T04:44:39.384Z,43.58
2018-09-27T04:45:49.212Z,43.48
2018-09-27T04:46:59.168Z,43.48
2018-09-27T04:48:08.837Z,43.38
2018-09-27T04:49:18.274Z,43.48
2018-09-27T04:50:27.961Z,43.48
2018-09-27T04:51:37.627Z,43.48
2018-09-27T04:52:47.528Z,43.58
2018-09-27T04:53:56.702Z,43.58
2018-09-27T04:55:05.612Z,43.48
2018-09-27T04:56:15.128Z,43.58
2018-09-27T04:57:24.830Z,43.48
2018-09-27T04:58:34.567Z,43.48
2018-09-27T04:59:44.281Z,43.48
2018-09-27T05:00:53.727Z,43.48
2018-09-27T05:02:03.149Z,43.58
2018-09-27T05:03:12.844Z,43.48
2018-09-27T05:04:22.520Z,43.48
2018-09-27T05:05:31.956Z,43.48
2018-09-27T05:06:41.117Z,43.48
2018-09-27T05:07:50.554Z,43.58
2018-09-27T05:08:59.719Z,43.58
2018-09-27T05:10:09.152Z,43.67
2018-09-27T05:11:18.613Z,43.48
2018-09-27T05:12:28.288Z,43.48
2018-09-27T05:13:37.729Z,43.67
2018-09-27T05:14:47.154Z,43.67
2018-09-27T05:15:56.875Z,43.48
2018-09-27T05:17:06.490Z,43.58
2018-09-27T05:18:15.928Z,43.67
2018-09-27T05:19:25.360Z,43.48
2018-09-27T05:20:35.056Z,43.67
2018-09-27T05:21:45.225Z,43.58
2018-09-27T05:22:54.703Z,43.48
2018-09-27T05:24:04.129Z,43.67
2018-09-27T05:25:13.320Z,43.48
2018-09-27T05:26:22.501Z,43.48
2018-09-27T05:27:31.975Z,43.48
2018-09-27T05:28:41.869Z,43.48
2018-09-27T05:29:50.788Z,43.48
2018-09-27T05:31:00.466Z,43.48
2018-09-27T05:32:10.135Z,43.58
2018-09-27T05:33:20.268Z,43.48
2018-09-27T05:34:29.759Z,43.67
2018-09-27T05:35:39.450Z,43.48
2018-09-27T05:36:48.625Z,43.58
2018-09-27T05:37:58.304Z,43.67
2018-09-27T05:39:08.003Z,43.48
2018-09-27T05:40:17.950Z,43.67
2018-09-27T05:41:27.384Z,43.58
2018-09-27T05:42:36.596Z,43.67
2018-09-27T05:43:46.011Z,43.58
2018-09-27T05:44:55.450Z,43.48
2018-09-27T05:46:04.632Z,43.38
2018-09-27T05:47:13.544Z,43.48
2018-09-27T05:48:23.500Z,43.48
2018-09-27T05:49:32.410Z,43.67
2018-09-27T05:50:41.846Z,43.58
2018-09-27T05:51:51.012Z,43.48
2018-09-27T05:53:00.468Z,43.58
2018-09-27T05:54:09.626Z,43.48
2018-09-27T05:55:19.066Z,43.48
2018-09-27T05:56:28.757Z,43.38
2018-09-27T05:57:38.315Z,43.58
2018-09-27T05:58:48.251Z,43.48
2018-09-27T05:59:57.426Z,43.48
2018-09-27T06:01:06.604Z,43.58
2018-09-27T06:02:16.362Z,43.48
2018-09-27T06:03:26.375Z,43.67
2018-09-27T06:04:35.939Z,43.48
2018-09-27T06:05:45.880Z,43.48
2018-09-27T06:06:55.044Z,43.48
2018-09-27T06:08:04.215Z,43.67
2018-09-27T06:09:13.389Z,43.48
2018-09-27T06:10:23.332Z,43.67
2018-09-27T06:11:32.822Z,43.48
2018-09-27T06:12:42.120Z,43.58
2018-09-27T06:13:52.076Z,43.48
2018-09-27T06:15:02.033Z,43.48
2018-09-27T06:16:11.208Z,43.58
2018-09-27T06:17:20.634Z,43.48
2018-09-27T06:18:29.797Z,43.48
2018-09-27T06:19:39.260Z,43.58
2018-09-27T06:20:49.053Z,43.48
2018-09-27T06:21:58.493Z,43.48
2018-09-27T06:23:07.663Z,43.67
2018-09-27T06:24:17.120Z,43.48
2018-09-27T06:25:26.095Z,43.58
2018-09-27T06:26:35.586Z,43.38
2018-09-27T06:27:45.125Z,43.48
2018-09-27T06:28:54.803Z,43.48
2018-09-27T06:30:04.242Z,43.58
2018-09-27T06:31:13.716Z,43.58
2018-09-27T06:32:22.622Z,43.48
2018-09-27T06:33:32.389Z,43.48
2018-09-27T06:34:42.315Z,43.67
2018-09-27T06:35:51.737Z,43.48
2018-09-27T06:37:01.864Z,43.48
2018-09-27T06:38:11.043Z,43.58
2018-09-27T06:39:20.725Z,43.58
2018-09-27T06:40:30.392Z,43.48
2018-09-27T06:41:39.823Z,43.67
2018-09-27T06:42:49.546Z,43.48
2018-09-27T06:43:58.708Z,43.48
2018-09-27T06:45:08.157Z,43.48
2018-09-27T06:46:17.851Z,43.58
2018-09-27T06:47:26.763Z,43.67
2018-09-27T06:48:36.817Z,43.48
2018-09-27T06:49:46.598Z,43.48
2018-09-27T06:50:56.028Z,43.48
2018-09-27T06:52:05.460Z,43.67
2018-09-27T06:53:14.620Z,43.38
2018-09-27T06:54:23.781Z,43.67
2018-09-27T06:55:33.752Z,43.58
2018-09-27T06:56:44.363Z,43.48
2018-09-27T06:57:53.622Z,43.48
2018-09-27T06:59:03.047Z,43.58
2018-09-27T07:00:12.727Z,43.48
2018-09-27T07:01:22.159Z,43.48
2018-09-27T07:02:31.898Z,43.48
2018-09-27T07:03:41.699Z,43.67
2018-09-27T07:04:51.227Z,43.48
2018-09-27T07:06:01.167Z,43.58
2018-09-27T07:07:10.197Z,43.58
2018-09-27T07:08:20.009Z,43.58
2018-09-27T07:09:30.090Z,43.58
2018-09-27T07:10:39.535Z,43.48
2018-09-27T07:11:48.808Z,43.58
2018-09-27T07:12:58.826Z,43.58
2018-09-27T07:14:08.519Z,43.48
2018-09-27T07:15:17.973Z,43.48
2018-09-27T07:16:27.153Z,43.58
2018-09-27T07:17:36.323Z,43.48
2018-09-27T07:18:45.882Z,43.48
2018-09-27T07:19:55.766Z,43.58
2018-09-27T07:21:04.937Z,43.67
2018-09-27T07:22:14.631Z,43.58
2018-09-27T07:23:24.315Z,43.58
2018-09-27T07:24:34.271Z,43.67
2018-09-27T07:25:42.931Z,43.58
2018-09-27T07:26:53.213Z,43.58
2018-09-27T07:28:02.473Z,43.48
2018-09-27T07:29:11.397Z,43.58
2018-09-27T07:30:21.090Z,43.58
2018-09-27T07:31:30.765Z,43.67
2018-09-27T07:32:40.229Z,43.58
2018-09-27T07:33:50.166Z,43.58
2018-09-27T07:35:00.061Z,43.67
2018-09-27T07:36:09.224Z,43.58
2018-09-27T07:37:18.896Z,43.67
2018-09-27T07:38:27.832Z,43.67
2018-09-27T07:39:37.722Z,43.67
2018-09-27T07:40:47.400Z,43.67
2018-09-27T07:41:56.811Z,43.48
2018-09-27T07:43:06.253Z,43.67
2018-09-27T07:44:15.935Z,43.48
2018-09-27T07:45:25.682Z,43.67
2018-09-27T07:46:35.142Z,43.67
2018-09-27T07:47:44.583Z,43.58
2018-09-27T07:48:53.745Z,43.67
2018-09-27T07:50:02.912Z,43.67
2018-09-27T07:51:12.593Z,43.67
2018-09-27T07:52:22.321Z,43.67
2018-09-27T07:53:31.766Z,43.48
2018-09-27T07:54:41.118Z,43.67
2018-09-27T07:55:50.461Z,43.58
2018-09-27T07:56:59.636Z,43.67
2018-09-27T07:58:08.819Z,43.58
2018-09-27T07:59:17.993Z,43.58
2018-09-27T08:00:26.913Z,43.67
2018-09-27T08:01:36.647Z,43.58
2018-09-27T08:02:46.598Z,43.67
2018-09-27T08:03:56.550Z,43.58
2018-09-27T08:05:06.631Z,43.48
2018-09-27T08:06:16.062Z,43.67
2018-09-27T08:07:25.750Z,43.58
2018-09-27T08:08:35.119Z,43.67
2018-09-27T08:09:44.685Z,43.58
2018-09-27T08:10:54.434Z,43.67
2018-09-27T08:12:04.437Z,43.67
2018-09-27T08:13:13.874Z,43.48
2018-09-27T08:14:23.118Z,43.58
2018-09-27T08:15:32.927Z,43.67
2018-09-27T08:16:42.184Z,43.67
2018-09-27T08:17:51.969Z,43.67
2018-09-27T08:19:01.650Z,43.67
2018-09-27T08:20:10.828Z,43.58
2018-09-27T08:21:20.601Z,43.67
2018-09-27T08:22:30.144Z,43.67
2018-09-27T08:23:40.258Z,43.67
2018-09-27T08:24:49.232Z,43.77
2018-09-27T08:25:58.655Z,43.67
2018-09-27T08:27:08.350Z,43.67
2018-09-27T08:28:17.796Z,43.77
2018-09-27T08:29:27.498Z,43.67
2018-09-27T08:30:36.968Z,43.77
2018-09-27T08:31:46.651Z,43.58
2018-09-27T08:32:56.063Z,43.67
2018-09-27T08:34:05.215Z,43.67
2018-09-27T08:35:14.657Z,43.58
2018-09-27T08:36:24.347Z,43.58
2018-09-27T08:37:33.780Z,43.58
2018-09-27T08:38:43.326Z,43.67
2018-09-27T08:39:53.523Z,43.77
2018-09-27T08:41:03.011Z,43.77
2018-09-27T08:42:12.197Z,43.67
2018-09-27T08:43:21.879Z,43.67
2018-09-27T08:44:30.934Z,43.58
2018-09-27T08:45:41.228Z,43.77
2018-09-27T08:46:51.657Z,43.77
2018-09-27T08:48:00.828Z,43.67
2018-09-27T08:49:10.256Z,43.67
2018-09-27T08:50:19.421Z,43.67
2018-09-27T08:51:29.445Z,43.77
2018-09-27T08:52:39.356Z,43.67
2018-09-27T08:53:48.955Z,43.67
2018-09-27T08:54:58.637Z,43.67
2018-09-27T08:56:08.406Z,43.67
2018-09-27T08:57:18.115Z,43.67
2018-09-27T08:58:27.892Z,43.77
2018-09-27T08:59:37.311Z,43.67
2018-09-27T09:00:47.335Z,43.67
2018-09-27T09:01:56.778Z,43.67
2018-09-27T09:03:06.202Z,43.67
2018-09-27T09:04:15.909Z,43.67
2018-09-27T09:05:25.363Z,43.67
2018-09-27T09:06:34.790Z,43.67
2018-09-27T09:07:44.616Z,43.58
2018-09-27T09:08:54.650Z,43.67
2018-09-27T09:10:03.821Z,43.67
2018-09-27T09:11:13.772Z,43.67
2018-09-27T09:12:23.727Z,43.77
2018-09-27T09:13:33.258Z,43.67
2018-09-27T09:14:42.975Z,43.67
2018-09-27T09:15:52.452Z,43.67
2018-09-27T09:17:01.618Z,43.67
2018-09-27T09:18:11.305Z,43.67
2018-09-27T09:19:20.482Z,43.77
2018-09-27T09:20:30.379Z,43.67
2018-09-27T09:21:40.053Z,43.67
2018-09-27T09:22:49.925Z,43.67
2018-09-27T09:23:59.605Z,43.67
2018-09-27T09:25:09.049Z,43.67
2018-09-27T09:26:18.469Z,43.67
2018-09-27T09:27:27.681Z,43.67
2018-09-27T09:28:37.357Z,43.67
2018-09-27T09:29:47.250Z,43.67
2018-09-27T09:30:56.973Z,43.67
2018-09-27T09:32:06.418Z,43.67
2018-09-27T09:33:16.115Z,43.48
2018-09-27T09:34:25.821Z,43.58
2018-09-27T09:35:35.403Z,43.38
2018-09-27T09:36:45.407Z,43.67
2018-09-27T09:37:55.098Z,43.58
2018-09-27T09:39:04.529Z,43.67
2018-09-27T09:40:13.701Z,43.87
2018-09-27T09:41:23.125Z,43.58
2018-09-27T09:42:33.060Z,43.67
2018-09-27T09:43:42.500Z,43.67
2018-09-27T09:44:51.930Z,43.48
2018-09-27T09:46:01.617Z,43.48
2018-09-27T09:47:10.790Z,43.67
2018-09-27T09:48:19.954Z,43.58
2018-09-27T09:49:29.164Z,43.67
2018-09-27T09:50:38.588Z,43.58
2018-09-27T09:51:48.292Z,43.67
2018-09-27T09:52:58.228Z,43.77
2018-09-27T09:54:07.646Z,43.48
2018-09-27T09:55:17.615Z,43.87
2018-09-27T09:56:27.297Z,43.87
2018-09-27T09:57:36.488Z,43.48
2018-09-27T09:58:45.648Z,43.48
2018-09-27T09:59:55.075Z,43.87
2018-09-27T10:01:04.483Z,43.87
2018-09-27T10:02:13.933Z,43.58
2018-09-27T10:03:23.707Z,43.48
2018-09-27T10:04:33.123Z,43.48
2018-09-27T10:05:42.603Z,43.77
2018-09-27T10:06:52.021Z,43.67
2018-09-27T10:08:01.702Z,43.77
2018-09-27T10:09:10.613Z,43.87
2018-09-27T10:10:20.027Z,43.77
2018-09-27T10:11:29.181Z,43.58
2018-09-27T10:12:38.876Z,43.87
2018-09-27T10:13:48.043Z,43.87
2018-09-27T10:14:57.462Z,43.77
2018-09-27T10:16:38.723Z,43.77
2018-09-27T10:17:48.673Z,43.29
2018-09-27T10:18:57.833Z,43.77
2018-09-27T10:20:06.735Z,43.48
2018-09-27T10:21:15.891Z,43.87
2018-09-27T10:22:25.841Z,43.87
2018-09-27T10:23:35.257Z,43.77
2018-09-27T10:24:44.698Z,43.77
2018-09-27T10:25:54.143Z,43.38
2018-09-27T10:27:03.355Z,43.38
2018-09-27T10:28:12.584Z,43.87
2018-09-27T10:29:22.266Z,43.58
2018-09-27T10:30:32.155Z,43.87
2018-09-27T10:31:41.597Z,43.77
2018-09-27T10:32:51.292Z,43.48
2018-09-27T10:34:00.212Z,43.87
2018-09-27T10:35:10.295Z,43.77
2018-09-27T10:36:19.987Z,43.48
2018-09-27T10:37:29.663Z,43.38
2018-09-27T10:38:39.551Z,43.38
2018-09-27T10:39:49.510Z,43.58
2018-09-27T10:40:58.174Z,43.38
2018-09-27T10:42:07.338Z,43.48
2018-09-27T10:43:16.583Z,43.48
2018-09-27T10:44:25.506Z,43.48
2018-09-27T10:45:34.924Z,43.48
2018-09-27T10:46:44.608Z,43.87
2018-09-27T10:47:54.305Z,43.48
2018-09-27T10:49:03.498Z,43.29
2018-09-27T10:50:12.939Z,43.48
2018-09-27T10:51:21.917Z,43.48
2018-09-27T10:52:31.882Z,43.87
2018-09-27T10:53:41.560Z,43.38
2018-09-27T10:54:51.254Z,43.38
2018-09-27T10:56:00.948Z,43.38
2018-09-27T10:57:11.107Z,43.38
2018-09-27T10:58:21.215Z,43.38
2018-09-27T10:59:30.969Z,43.48
2018-09-27T11:00:40.769Z,43.48
2018-09-27T11:01:50.448Z,43.48
2018-09-27T11:02:59.886Z,43.38
2018-09-27T11:04:09.964Z,43.48
2018-09-27T11:05:19.724Z,43.38
2018-09-27T11:06:29.525Z,43.38
2018-09-27T11:07:38.963Z,43.48
2018-09-27T11:08:48.649Z,43.38
2018-09-27T11:09:57.837Z,43.48
2018-09-27T11:11:07.984Z,43.48
2018-09-27T11:12:17.970Z,43.19
2018-09-27T11:13:27.404Z,43.48
2018-09-27T11:14:37.087Z,43.48
2018-09-27T11:15:46.778Z,43.38
2018-09-27T11:16:56.880Z,43.38
2018-09-27T11:18:06.337Z,43.48
2018-09-27T11:19:15.779Z,43.48
2018-09-27T11:20:25.238Z,43.1
2018-09-27T11:21:35.194Z,43.48
2018-09-27T11:22:44.882Z,43.48
2018-09-27T11:23:54.634Z,43.19
2018-09-27T11:25:04.064Z,43.19
2018-09-27T11:26:13.483Z,43.1
2018-09-27T11:27:22.399Z,43.38
2018-09-27T11:28:32.149Z,43.19
2018-09-27T11:29:41.826Z,43.19
2018-09-27T11:30:51.487Z,43.38
2018-09-27T11:32:00.958Z,43.38
2018-09-27T11:33:10.555Z,43.29
2018-09-27T11:34:20.306Z,43.1
2018-09-27T11:35:30.277Z,43.38
2018-09-27T11:36:39.700Z,43.1
2018-09-27T11:37:49.148Z,43.38
2018-09-27T11:38:58.575Z,43.19
2018-09-27T11:40:08.258Z,43.48
2018-09-27T11:41:17.948Z,43.29
2018-09-27T11:42:27.590Z,43.38
2018-09-27T11:43:37.392Z,43.29
2018-09-27T11:44:47.079Z,43.48
2018-09-27T11:45:56.511Z,43.19
2018-09-27T11:47:06.472Z,43.19
2018-09-27T11:48:15.633Z,43
2018-09-27T11:49:25.340Z,43.19
2018-09-27T11:50:36.193Z,43
2018-09-27T11:51:45.875Z,43.1
2018-09-27T11:52:55.051Z,42.9
2018-09-27T11:54:04.226Z,42.9
2018-09-27T11:55:13.864Z,42.9
2018-09-27T11:56:23.335Z,42.9
2018-09-27T11:57:32.510Z,43
2018-09-27T11:58:41.945Z,43.19
2018-09-27T11:59:51.140Z,43.1
2018-09-27T12:01:00.383Z,42.9
2018-09-27T12:02:09.814Z,42.9
2018-09-27T12:03:19.247Z,43.19
2018-09-27T12:04:28.408Z,43.29
2018-09-27T12:05:38.096Z,43.19
2018-09-27T12:06:48.081Z,43.38
2018-09-27T12:07:57.787Z,43.19
2018-09-27T12:09:07.230Z,43.29
2018-09-27T12:10:17.162Z,43.1
2018-09-27T12:11:26.316Z,43.29
2018-09-27T12:12:36.290Z,43.19
2018-09-27T12:13:45.710Z,43.19
2018-09-27T12:14:54.929Z,43.21
2018-09-27T12:16:04.326Z,43.29
2018-09-27T12:17:13.748Z,43.19
2018-09-27T12:18:23.180Z,43.29
2018-09-27T12:19:33.305Z,43.19
2018-09-27T12:20:43.689Z,43.19
2018-09-27T12:21:53.130Z,43.29
2018-09-27T12:23:02.404Z,43.29
2018-09-27T12:24:11.614Z,43.31
2018-09-27T12:25:21.027Z,43.21
2018-09-27T12:26:31.125Z,43.19
2018-09-27T12:27:40.869Z,43
2018-09-27T12:28:50.341Z,43
2018-09-27T12:29:59.829Z,43
2018-09-27T12:31:08.782Z,43.1
2018-09-27T12:32:18.776Z,43
2018-09-27T12:33:27.946Z,43
2018-09-27T12:34:37.882Z,43.1
2018-09-27T12:35:47.560Z,43.1
2018-09-27T12:36:57.264Z,43.1
2018-09-27T12:38:06.949Z,43
2018-09-27T12:39:16.426Z,43
2018-09-27T12:40:25.932Z,43
2018-09-27T12:41:36.305Z,42.9
2018-09-27T12:42:46.525Z,43
2018-09-27T12:43:56.485Z,43
2018-09-27T12:45:05.492Z,43
2018-09-27T12:46:14.909Z,43.1
2018-09-27T12:47:25.023Z,43.1
2018-09-27T12:48:34.834Z,43
2018-09-27T12:49:45.493Z,42.9
2018-09-27T12:50:54.731Z,43
2018-09-27T12:52:05.071Z,42.9
2018-09-27T12:53:16.064Z,43.02
2018-09-27T12:54:25.587Z,42.93
2018-09-27T12:55:35.020Z,42.9
2018-09-27T12:56:44.980Z,43.12
2018-09-27T12:57:54.422Z,42.93
2018-09-27T12:59:03.589Z,43.02
2018-09-27T13:00:13.025Z,43.02
2018-09-27T13:01:22.766Z,43.02
2018-09-27T13:02:32.887Z,43.02
2018-09-27T13:03:42.548Z,43.02
2018-09-27T13:04:52.000Z,43.12
2018-09-27T13:06:01.676Z,42.83
2018-09-27T13:07:11.524Z,42.93
2018-09-27T13:08:21.201Z,42.93
2018-09-27T13:09:31.364Z,42.73
2018-09-27T13:10:41.368Z,42.93
2018-09-27T13:11:50.315Z,42.93
2018-09-27T13:13:00.294Z,42.93
2018-09-27T13:14:09.561Z,42.83
2018-09-27T13:15:18.995Z,42.73
2018-09-27T13:16:28.692Z,42.73
2018-09-27T13:17:38.432Z,43.02
2018-09-27T13:18:47.692Z,43.02
2018-09-27T13:20:01.191Z,43.12
2018-09-27T13:21:11.659Z,43.12
2018-09-27T13:22:21.353Z,43.12
2018-09-27T13:23:30.538Z,43.21
2018-09-27T13:24:40.024Z,43.21
2018-09-27T13:25:49.479Z,43.21
2018-09-27T13:26:59.044Z,43.12
2018-09-27T13:28:08.653Z,43.12
2018-09-27T13:29:18.343Z,43.12
2018-09-27T13:30:27.520Z,42.83
2018-09-27T13:31:36.957Z,42.83
2018-09-27T13:32:46.129Z,42.83
2018-09-27T13:33:55.635Z,42.73
2018-09-27T13:35:05.178Z,42.73
2018-09-27T13:36:14.870Z,42.83
2018-09-27T13:37:24.564Z,42.73
2018-09-27T13:38:34.506Z,42.73
2018-09-27T13:39:43.682Z,42.93
2018-09-27T13:40:53.496Z,42.93
2018-09-27T13:42:02.670Z,42.83
2018-09-27T13:43:12.212Z,42.73
2018-09-27T13:44:21.127Z,42.73
2018-09-27T13:45:31.071Z,42.83
2018-09-27T13:46:40.510Z,42.63
2018-09-27T13:47:50.063Z,42.73
2018-09-27T13:48:59.709Z,42.63
2018-09-27T13:50:09.893Z,42.44
2018-09-27T13:51:19.341Z,42.44
2018-09-27T13:52:28.795Z,42.73
2018-09-27T13:53:38.229Z,42.44
2018-09-27T13:54:47.687Z,42.63
2018-09-27T13:55:57.742Z,42.63
2018-09-27T13:57:07.388Z,42.63
2018-09-27T13:58:16.935Z,42.63
2018-09-27T13:59:26.917Z,42.54
2018-09-27T14:00:35.841Z,42.63
2018-09-27T14:01:45.011Z,42.35
2018-09-27T14:02:54.790Z,42.35
2018-09-27T14:04:04.691Z,42.54
2018-09-27T14:05:14.373Z,42.44
2018-09-27T14:06:23.898Z,42.63
2018-09-27T14:07:33.579Z,42.44
2018-09-27T14:08:42.760Z,42.54
2018-09-27T14:09:51.692Z,42.54
2018-09-27T14:11:01.367Z,42.73
2018-09-27T14:12:10.801Z,42.73
2018-09-27T14:13:20.244Z,42.73
2018-09-27T14:14:29.782Z,42.63
2018-09-27T14:15:39.599Z,42.83
2018-09-27T14:16:48.847Z,42.83
2018-09-27T14:17:58.691Z,42.93
2018-09-27T14:19:07.613Z,42.83
2018-09-27T14:20:17.299Z,42.73
2018-09-27T14:21:27.229Z,42.73
2018-09-27T14:22:36.918Z,42.73
2018-09-27T14:23:46.381Z,42.83
2018-09-27T14:24:56.357Z,42.83
2018-09-27T14:26:06.583Z,42.93
2018-09-27T14:27:15.775Z,42.93
2018-09-27T14:28:25.458Z,43.21
2018-09-27T14:29:34.875Z,42.83
2018-09-27T14:30:44.929Z,43.12
2018-09-27T14:31:55.140Z,43.12
2018-09-27T14:33:04.319Z,43.12
2018-09-27T14:34:14.260Z,43.12
2018-09-27T14:35:23.687Z,43.21
2018-09-27T14:36:32.940Z,43.12
2018-09-27T14:37:42.583Z,42.73
2018-09-27T14:38:52.271Z,43.02
2018-09-27T14:40:01.915Z,42.93
2018-09-27T14:41:11.078Z,42.83
2018-09-27T14:42:20.242Z,42.73
2018-09-27T14:43:29.968Z,42.73
2018-09-27T14:44:39.643Z,42.93
2018-09-27T14:45:48.819Z,42.93
2018-09-27T14:46:58.509Z,42.93
2018-09-27T14:48:08.091Z,42.93
2018-09-27T14:49:18.136Z,42.73
2018-09-27T14:50:28.061Z,43.02
2018-09-27T14:51:37.255Z,42.93
2018-09-27T14:52:46.991Z,42.93
2018-09-27T14:53:56.493Z,42.93
2018-09-27T14:55:05.940Z,42.93
2018-09-27T14:56:15.295Z,42.93
2018-09-27T14:57:24.848Z,42.83
2018-09-27T14:58:34.057Z,43.02